sensor_id;sensor_type;location;lat;lon;timestamp;pressure;altitude;pressure_sealevel;temperature;humidity
55604;BME280;41468;48.838;9.330;2023-02-17T00:00:20;99194.03;;;10.58;57.56
55604;BME280;41468;48.838;9.330;2023-02-17T00:02:46;99198.59;;;10.54;57.69
55604;BME280;41468;48.838;9.330;2023-02-17T00:05:13;99196.41;;;10.60;57.70
55604;BME280;41468;48.838;9.330;2023-02-17T00:07:40;99199.47;;;10.58;57.95
55604;BME280;41468;48.838;9.330;2023-02-17T00:10:07;99195.16;;;10.57;57.67
55604;BME280;41468;48.838;9.330;2023-02-17T00:12:35;99187.59;;;10.51;58.60
55604;BME280;41468;48.838;9.330;2023-02-17T00:15:02;99190.16;;;10.59;57.61
55604;BME280;41468;48.838;9.330;2023-02-17T00:17:29;99183.78;;;10.55;57.80
55604;BME280;41468;48.838;9.330;2023-02-17T00:19:55;99184.69;;;10.59;57.55
55604;BME280;41468;48.838;9.330;2023-02-17T00:22:33;99181.97;;;10.59;57.72
55604;BME280;41468;48.838;9.330;2023-02-17T00:24:59;99186.09;;;10.53;58.08
55604;BME280;41468;48.838;9.330;2023-02-17T00:27:26;99180.63;;;10.53;57.82
55604;BME280;41468;48.838;9.330;2023-02-17T00:29:52;99178.44;;;10.59;57.76
55604;BME280;41468;48.838;9.330;2023-02-17T00:32:19;99177.75;;;10.62;57.19
55604;BME280;41468;48.838;9.330;2023-02-17T00:34:46;99170.59;;;10.57;56.79
55604;BME280;41468;48.838;9.330;2023-02-17T00:37:12;99176.06;;;10.57;58.15
55604;BME280;41468;48.838;9.330;2023-02-17T00:39:43;99171.28;;;10.54;57.78
55604;BME280;41468;48.838;9.330;2023-02-17T00:42:10;99172.00;;;10.51;57.79
55604;BME280;41468;48.838;9.330;2023-02-17T00:44:37;99172.88;;;10.55;58.16
55604;BME280;41468;48.838;9.330;2023-02-17T00:47:03;99174.34;;;10.53;58.14
55604;BME280;41468;48.838;9.330;2023-02-17T00:49:30;99176.53;;;10.47;58.41
55604;BME280;41468;48.838;9.330;2023-02-17T00:51:59;99177.00;;;10.49;58.87
55604;BME280;41468;48.838;9.330;2023-02-17T00:54:27;99174.94;;;10.46;59.69
55604;BME280;41468;48.838;9.330;2023-02-17T00:56:54;99181.09;;;10.43;59.20
55604;BME280;41468;48.838;9.330;2023-02-17T00:59:21;99179.50;;;10.42;59.22
55604;BME280;41468;48.838;9.330;2023-02-17T01:01:47;99183.38;;;10.41;59.47
55604;BME280;41468;48.838;9.330;2023-02-17T01:04:14;99174.84;;;10.43;59.32
55604;BME280;41468;48.838;9.330;2023-02-17T01:06:40;99178.84;;;10.45;59.18
55604;BME280;41468;48.838;9.330;2023-02-17T01:09:10;99176.34;;;10.40;59.26
55604;BME280;41468;48.838;9.330;2023-02-17T01:11:39;99177.47;;;10.39;59.77
55604;BME280;41468;48.838;9.330;2023-02-17T01:14:05;99181.09;;;10.43;59.83
55604;BME280;41468;48.838;9.330;2023-02-17T01:16:36;99169.97;;;10.36;59.62
55604;BME280;41468;48.838;9.330;2023-02-17T01:19:05;99173.81;;;10.47;59.56
55604;BME280;41468;48.838;9.330;2023-02-17T01:21:34;99164.28;;;10.41;60.33
55604;BME280;41468;48.838;9.330;2023-02-17T01:24:03;99167.25;;;10.36;60.25
55604;BME280;41468;48.838;9.330;2023-02-17T01:26:32;99164.59;;;10.39;60.18
55604;BME280;41468;48.838;9.330;2023-02-17T01:28:59;99163.81;;;10.39;60.05
55604;BME280;41468;48.838;9.330;2023-02-17T01:31:26;99158.25;;;10.35;60.61
55604;BME280;41468;48.838;9.330;2023-02-17T01:33:55;99154.38;;;10.36;60.45
55604;BME280;41468;48.838;9.330;2023-02-17T01:36:22;99162.22;;;10.38;59.97
55604;BME280;41468;48.838;9.330;2023-02-17T01:38:49;99159.97;;;10.40;60.10
55604;BME280;41468;48.838;9.330;2023-02-17T01:41:17;99146.56;;;10.35;60.46
55604;BME280;41468;48.838;9.330;2023-02-17T01:44:06;99158.34;;;10.39;59.95
55604;BME280;41468;48.838;9.330;2023-02-17T01:46:34;99149.28;;;10.35;60.02
55604;BME280;41468;48.838;9.330;2023-02-17T01:51:39;99142.22;;;10.34;60.28
55604;BME280;41468;48.838;9.330;2023-02-17T01:54:17;99144.94;;;10.34;61.16
55604;BME280;41468;48.838;9.330;2023-02-17T01:56:45;99141.09;;;10.35;60.92
55604;BME280;41468;48.838;9.330;2023-02-17T01:59:19;99131.75;;;10.36;59.91
55604;BME280;41468;48.838;9.330;2023-02-17T02:01:49;99127.19;;;10.40;60.76
55604;BME280;41468;48.838;9.330;2023-02-17T02:04:20;99126.66;;;10.34;60.50
55604;BME280;41468;48.838;9.330;2023-02-17T02:06:47;99126.19;;;10.32;60.56
55604;BME280;41468;48.838;9.330;2023-02-17T02:09:18;99128.81;;;10.29;60.96
55604;BME280;41468;48.838;9.330;2023-02-17T02:11:52;99129.81;;;10.24;61.05
55604;BME280;41468;48.838;9.330;2023-02-17T02:14:19;99129.81;;;10.36;60.13
55604;BME280;41468;48.838;9.330;2023-02-17T02:17:00;99124.25;;;10.33;60.58
55604;BME280;41468;48.838;9.330;2023-02-17T02:22:45;99123.22;;;10.37;59.09
55604;BME280;41468;48.838;9.330;2023-02-17T02:31:11;99119.13;;;10.31;60.42
55604;BME280;41468;48.838;9.330;2023-02-17T02:33:51;99118.09;;;10.36;59.81
55604;BME280;41468;48.838;9.330;2023-02-17T02:41:40;99107.41;;;10.43;58.83
55604;BME280;41468;48.838;9.330;2023-02-17T02:44:09;99107.28;;;10.39;59.21
55604;BME280;41468;48.838;9.330;2023-02-17T02:46:38;99107.28;;;10.39;58.69
55604;BME280;41468;48.838;9.330;2023-02-17T02:49:05;99106.06;;;10.37;59.03
55604;BME280;41468;48.838;9.330;2023-02-17T02:57:02;99101.72;;;10.36;59.25
55604;BME280;41468;48.838;9.330;2023-02-17T03:04:37;99097.59;;;10.42;59.09
55604;BME280;41468;48.838;9.330;2023-02-17T03:07:16;99092.03;;;10.38;58.91
55604;BME280;41468;48.838;9.330;2023-02-17T03:09:52;99084.75;;;10.43;59.07
55604;BME280;41468;48.838;9.330;2023-02-17T03:12:20;99087.50;;;10.43;58.64
55604;BME280;41468;48.838;9.330;2023-02-17T03:15:18;99091.34;;;10.42;59.16
55604;BME280;41468;48.838;9.330;2023-02-17T03:17:47;99086.25;;;10.40;58.68
55604;BME280;41468;48.838;9.330;2023-02-17T03:20:14;99080.53;;;10.45;58.77
55604;BME280;41468;48.838;9.330;2023-02-17T03:22:44;99074.97;;;10.42;58.70
55604;BME280;41468;48.838;9.330;2023-02-17T03:25:12;99074.34;;;10.32;59.56
55604;BME280;41468;48.838;9.330;2023-02-17T03:27:39;99074.56;;;10.27;59.74
55604;BME280;41468;48.838;9.330;2023-02-17T03:30:06;99075.44;;;10.31;59.61
55604;BME280;41468;48.838;9.330;2023-02-17T03:32:34;99077.59;;;10.26;59.83
55604;BME280;41468;48.838;9.330;2023-02-17T03:35:00;99083.31;;;10.33;60.13
55604;BME280;41468;48.838;9.330;2023-02-17T03:37:27;99082.84;;;10.31;59.76
55604;BME280;41468;48.838;9.330;2023-02-17T03:39:54;99079.88;;;10.36;59.96
55604;BME280;41468;48.838;9.330;2023-02-17T03:42:20;99079.31;;;10.43;60.56
55604;BME280;41468;48.838;9.330;2023-02-17T03:44:47;99080.34;;;10.38;59.66
55604;BME280;41468;48.838;9.330;2023-02-17T03:47:13;99095.13;;;10.37;60.21
55604;BME280;41468;48.838;9.330;2023-02-17T03:49:40;99078.94;;;10.44;59.68
55604;BME280;41468;48.838;9.330;2023-02-17T03:52:13;99090.66;;;10.45;59.55
55604;BME280;41468;48.838;9.330;2023-02-17T03:54:40;99085.06;;;10.53;59.22
55604;BME280;41468;48.838;9.330;2023-02-17T03:57:06;99084.16;;;10.49;59.29
55604;BME280;41468;48.838;9.330;2023-02-17T03:59:33;99089.97;;;10.48;59.60
55604;BME280;41468;48.838;9.330;2023-02-17T04:02:00;99088.13;;;10.52;59.29
55604;BME280;41468;48.838;9.330;2023-02-17T04:04:26;99084.75;;;10.43;60.18
55604;BME280;41468;48.838;9.330;2023-02-17T04:06:53;99086.66;;;10.42;59.80
55604;BME280;41468;48.838;9.330;2023-02-17T04:09:20;99089.84;;;10.44;59.92
55604;BME280;41468;48.838;9.330;2023-02-17T04:11:46;99089.84;;;10.44;60.10
55604;BME280;41468;48.838;9.330;2023-02-17T04:14:13;99084.84;;;10.46;60.39
55604;BME280;41468;48.838;9.330;2023-02-17T04:16:39;99091.88;;;10.47;59.83
55604;BME280;41468;48.838;9.330;2023-02-17T04:19:06;99087.59;;;10.46;59.45
55604;BME280;41468;48.838;9.330;2023-02-17T04:21:33;99090.75;;;10.48;59.62
55604;BME280;41468;48.838;9.330;2023-02-17T04:24:00;99098.50;;;10.46;60.09
55604;BME280;41468;48.838;9.330;2023-02-17T04:26:28;99099.53;;;10.42;60.66
55604;BME280;41468;48.838;9.330;2023-02-17T04:28:55;99105.78;;;10.42;60.79
55604;BME280;41468;48.838;9.330;2023-02-17T04:31:21;99096.94;;;10.45;60.46
55604;BME280;41468;48.838;9.330;2023-02-17T04:33:48;99102.38;;;10.45;60.45
55604;BME280;41468;48.838;9.330;2023-02-17T04:36:15;99094.19;;;10.45;60.56
55604;BME280;41468;48.838;9.330;2023-02-17T04:38:41;99093.03;;;10.46;60.95
55604;BME280;41468;48.838;9.330;2023-02-17T04:41:19;99092.34;;;10.49;61.03
55604;BME280;41468;48.838;9.330;2023-02-17T04:43:46;99087.59;;;10.46;60.87
55604;BME280;41468;48.838;9.330;2023-02-17T04:46:17;99084.63;;;10.39;61.45
55604;BME280;41468;48.838;9.330;2023-02-17T04:48:44;99082.38;;;10.41;60.95
55604;BME280;41468;48.838;9.330;2023-02-17T04:51:10;99075.22;;;10.36;61.12
55604;BME280;41468;48.838;9.330;2023-02-17T04:53:37;99079.63;;;10.41;61.43
55604;BME280;41468;48.838;9.330;2023-02-17T04:56:04;99079.63;;;10.41;61.62
55604;BME280;41468;48.838;9.330;2023-02-17T04:58:31;99078.06;;;10.40;61.34
55604;BME280;41468;48.838;9.330;2023-02-17T05:00:58;99069.50;;;10.42;61.79
55604;BME280;41468;48.838;9.330;2023-02-17T05:03:26;99081.66;;;10.44;61.51
55604;BME280;41468;48.838;9.330;2023-02-17T05:05:53;99083.06;;;10.38;62.20
55604;BME280;41468;48.838;9.330;2023-02-17T05:08:19;99085.09;;;10.41;62.09
55604;BME280;41468;48.838;9.330;2023-02-17T05:10:46;99073.47;;;10.44;62.04
55604;BME280;41468;48.838;9.330;2023-02-17T05:13:12;99075.22;;;10.36;62.27
55604;BME280;41468;48.838;9.330;2023-02-17T05:15:44;99083.75;;;10.35;62.89
55604;BME280;41468;48.838;9.330;2023-02-17T05:18:12;99074.34;;;10.32;63.08
55604;BME280;41468;48.838;9.330;2023-02-17T05:20:39;99073.97;;;10.34;63.40
55604;BME280;41468;48.838;9.330;2023-02-17T05:23:06;99077.06;;;10.32;63.08
55604;BME280;41468;48.838;9.330;2023-02-17T05:25:44;99080.25;;;10.34;63.38
55604;BME280;41468;48.838;9.330;2023-02-17T05:28:11;99077.59;;;10.38;62.91
55604;BME280;41468;48.838;9.330;2023-02-17T05:30:37;99077.16;;;10.36;63.28
55604;BME280;41468;48.838;9.330;2023-02-17T05:33:04;99077.50;;;10.34;63.85
55604;BME280;41468;48.838;9.330;2023-02-17T05:35:37;99082.53;;;10.32;63.86
55604;BME280;41468;48.838;9.330;2023-02-17T05:38:03;99083.22;;;10.29;64.33
55604;BME280;41468;48.838;9.330;2023-02-17T05:40:30;99085.00;;;10.37;64.18
55604;BME280;41468;48.838;9.330;2023-02-17T05:42:57;99087.75;;;10.25;65.11
55604;BME280;41468;48.838;9.330;2023-02-17T05:45:23;99090.94;;;10.27;65.52
55604;BME280;41468;48.838;9.330;2023-02-17T05:47:50;99095.13;;;10.25;66.06
55604;BME280;41468;48.838;9.330;2023-02-17T05:50:16;99094.69;;;10.23;65.93
55604;BME280;41468;48.838;9.330;2023-02-17T05:52:43;99095.59;;;10.27;65.56
55604;BME280;41468;48.838;9.330;2023-02-17T05:55:09;99096.72;;;10.26;64.66
55604;BME280;41468;48.838;9.330;2023-02-17T05:57:36;99094.50;;;10.15;66.39
55604;BME280;41468;48.838;9.330;2023-02-17T06:00:03;99104.13;;;10.25;65.49
55604;BME280;41468;48.838;9.330;2023-02-17T06:02:30;99099.94;;;10.15;66.14
55604;BME280;41468;48.838;9.330;2023-02-17T06:04:56;99107.88;;;10.21;65.82
55604;BME280;41468;48.838;9.330;2023-02-17T06:07:23;99105.13;;;10.21;66.23
55604;BME280;41468;48.838;9.330;2023-02-17T06:09:49;99106.19;;;10.16;67.46
55604;BME280;41468;48.838;9.330;2023-02-17T06:12:16;99109.03;;;10.20;66.67
55604;BME280;41468;48.838;9.330;2023-02-17T06:14:43;99108.44;;;10.26;66.70
55604;BME280;41468;48.838;9.330;2023-02-17T06:17:09;99115.03;;;10.25;66.79
55604;BME280;41468;48.838;9.330;2023-02-17T06:19:36;99118.13;;;10.24;67.41
55604;BME280;41468;48.838;9.330;2023-02-17T06:22:02;99124.50;;;10.28;67.36
55604;BME280;41468;48.838;9.330;2023-02-17T06:24:29;99132.00;;;10.31;67.59
55604;BME280;41468;48.838;9.330;2023-02-17T06:26:56;99123.72;;;10.27;68.02
55604;BME280;41468;48.838;9.330;2023-02-17T06:29:22;99128.34;;;10.27;68.13
55604;BME280;41468;48.838;9.330;2023-02-17T06:31:49;99128.34;;;10.27;68.64
55604;BME280;41468;48.838;9.330;2023-02-17T06:34:16;99117.56;;;10.30;68.22
55604;BME280;41468;48.838;9.330;2023-02-17T06:36:43;99126.28;;;10.36;68.61
55604;BME280;41468;48.838;9.330;2023-02-17T06:39:09;99128.31;;;10.39;68.77
55604;BME280;41468;48.838;9.330;2023-02-17T06:41:36;99130.63;;;10.37;69.36
55604;BME280;41468;48.838;9.330;2023-02-17T06:44:03;99127.06;;;10.36;69.92
55604;BME280;41468;48.838;9.330;2023-02-17T06:46:29;99123.31;;;10.41;69.82
55604;BME280;41468;48.838;9.330;2023-02-17T06:48:56;99121.63;;;10.36;70.12
55604;BME280;41468;48.838;9.330;2023-02-17T06:51:23;99122.06;;;10.38;70.35
55604;BME280;41468;48.838;9.330;2023-02-17T06:53:49;99134.34;;;10.45;70.53
55604;BME280;41468;48.838;9.330;2023-02-17T06:56:16;99125.81;;;10.46;70.26
55604;BME280;41468;48.838;9.330;2023-02-17T06:58:45;99129.41;;;10.50;70.74
55604;BME280;41468;48.838;9.330;2023-02-17T07:01:22;99133.75;;;10.51;70.79
55604;BME280;41468;48.838;9.330;2023-02-17T07:03:49;99128.28;;;10.51;70.96
55604;BME280;41468;48.838;9.330;2023-02-17T07:06:15;99137.72;;;10.54;71.19
55604;BME280;41468;48.838;9.330;2023-02-17T07:08:42;99145.56;;;10.55;71.67
55604;BME280;41468;48.838;9.330;2023-02-17T07:11:12;99139.41;;;10.58;70.76
55604;BME280;41468;48.838;9.330;2023-02-17T07:13:39;99143.38;;;10.61;70.96
55604;BME280;41468;48.838;9.330;2023-02-17T07:16:07;99142.94;;;10.59;70.92
55604;BME280;41468;48.838;9.330;2023-02-17T07:18:35;99142.94;;;10.59;71.44
55604;BME280;41468;48.838;9.330;2023-02-17T07:21:07;99154.28;;;10.61;71.46
55604;BME280;41468;48.838;9.330;2023-02-17T07:23:34;99149.19;;;10.59;71.70
55604;BME280;41468;48.838;9.330;2023-02-17T07:26:06;99153.63;;;10.64;71.36
55604;BME280;41468;48.838;9.330;2023-02-17T07:28:35;99153.25;;;10.66;71.30
55604;BME280;41468;48.838;9.330;2023-02-17T07:31:09;99156.25;;;10.60;71.71
55604;BME280;41468;48.838;9.330;2023-02-17T07:33:37;99161.81;;;10.64;71.77
55604;BME280;41468;48.838;9.330;2023-02-17T07:36:08;99157.59;;;10.67;71.76
55604;BME280;41468;48.838;9.330;2023-02-17T07:38:35;99161.38;;;10.62;72.00
55604;BME280;41468;48.838;9.330;2023-02-17T07:41:06;99156.66;;;10.75;71.79
55604;BME280;41468;48.838;9.330;2023-02-17T07:43:33;99158.03;;;10.69;72.05
55604;BME280;41468;48.838;9.330;2023-02-17T07:46:00;99146.69;;;10.67;72.35
55604;BME280;41468;48.838;9.330;2023-02-17T07:48:26;99159.19;;;10.68;72.71
55604;BME280;41468;48.838;9.330;2023-02-17T07:50:53;99162.38;;;10.70;72.17
55604;BME280;41468;48.838;9.330;2023-02-17T07:53:20;99165.09;;;10.70;72.63
55604;BME280;41468;48.838;9.330;2023-02-17T07:55:51;99162.25;;;10.66;72.60
55604;BME280;41468;48.838;9.330;2023-02-17T07:58:17;99165.88;;;10.70;72.77
55604;BME280;41468;48.838;9.330;2023-02-17T08:00:44;99162.78;;;10.72;73.33
55604;BME280;41468;48.838;9.330;2023-02-17T08:03:10;99159.97;;;10.68;73.09
55604;BME280;41468;48.838;9.330;2023-02-17T08:05:38;99167.00;;;10.69;73.25
55604;BME280;41468;48.838;9.330;2023-02-17T08:08:07;99162.69;;;10.68;73.28
55604;BME280;41468;48.838;9.330;2023-02-17T08:10:52;99164.72;;;10.71;73.33
55604;BME280;41468;48.838;9.330;2023-02-17T08:13:37;99161.91;;;10.68;74.22
55604;BME280;41468;48.838;9.330;2023-02-17T08:16:04;99169.94;;;10.76;74.10
55604;BME280;41468;48.838;9.330;2023-02-17T08:18:31;99161.06;;;10.79;73.83
55604;BME280;41468;48.838;9.330;2023-02-17T08:21:02;99168.22;;;10.84;74.08
55604;BME280;41468;48.838;9.330;2023-02-17T08:23:29;99165.50;;;10.84;74.12
55604;BME280;41468;48.838;9.330;2023-02-17T08:25:57;99168.22;;;10.84;74.84
55604;BME280;41468;48.838;9.330;2023-02-17T08:28:24;99167.72;;;10.94;73.99
55604;BME280;41468;48.838;9.330;2023-02-17T08:30:51;99176.16;;;10.89;74.24
55604;BME280;41468;48.838;9.330;2023-02-17T08:33:17;99164.69;;;10.83;74.80
55604;BME280;41468;48.838;9.330;2023-02-17T08:35:44;99172.28;;;10.90;75.08
55604;BME280;41468;48.838;9.330;2023-02-17T08:38:11;99170.44;;;10.94;74.84
55604;BME280;41468;48.838;9.330;2023-02-17T08:40:38;99167.72;;;10.94;74.76
55604;BME280;41468;48.838;9.330;2023-02-17T08:43:08;99163.13;;;10.98;75.28
55604;BME280;41468;48.838;9.330;2023-02-17T08:45:43;99167.91;;;11.01;75.07
55604;BME280;41468;48.838;9.330;2023-02-17T08:48:11;99175.66;;;10.99;75.34
55604;BME280;41468;48.838;9.330;2023-02-17T08:50:37;99174.97;;;11.02;75.67
55604;BME280;41468;48.838;9.330;2023-02-17T08:53:04;99165.44;;;10.96;75.72
55604;BME280;41468;48.838;9.330;2023-02-17T08:55:30;99164.38;;;11.01;76.01
55604;BME280;41468;48.838;9.330;2023-02-17T08:58:14;99169.13;;;11.04;76.09
55604;BME280;41468;48.838;9.330;2023-02-17T09:00:40;99164.25;;;11.10;75.89
55604;BME280;41468;48.838;9.330;2023-02-17T09:03:07;99175.59;;;11.12;76.37
55604;BME280;41468;48.838;9.330;2023-02-17T09:05:33;99167.13;;;11.17;76.11
55604;BME280;41468;48.838;9.330;2023-02-17T09:08:01;99169.41;;;11.15;76.36
55604;BME280;41468;48.838;9.330;2023-02-17T09:10:28;99163.28;;;11.18;76.21
55604;BME280;41468;48.838;9.330;2023-02-17T09:12:54;99180.81;;;11.17;76.81
55604;BME280;41468;48.838;9.330;2023-02-17T09:15:26;99176.84;;;11.14;77.32
55604;BME280;41468;48.838;9.330;2023-02-17T09:17:52;99174.88;;;11.15;77.57
55604;BME280;41468;48.838;9.330;2023-02-17T09:20:19;99181.50;;;11.14;77.58
55604;BME280;41468;48.838;9.330;2023-02-17T09:22:50;99185.75;;;11.11;77.76
55604;BME280;41468;48.838;9.330;2023-02-17T09:25:17;99176.38;;;11.12;77.99
55604;BME280;41468;48.838;9.330;2023-02-17T09:27:50;99187.06;;;11.17;78.05
55604;BME280;41468;48.838;9.330;2023-02-17T09:30:21;99194.84;;;11.15;78.49
55604;BME280;41468;48.838;9.330;2023-02-17T09:32:48;99191.41;;;11.18;78.36
55604;BME280;41468;48.838;9.330;2023-02-17T09:35:16;99189.47;;;11.19;78.81
55604;BME280;41468;48.838;9.330;2023-02-17T09:37:48;99191.94;;;11.24;78.03
55604;BME280;41468;48.838;9.330;2023-02-17T09:40:28;99185.69;;;11.23;78.55
55604;BME280;41468;48.838;9.330;2023-02-17T09:42:58;99193.53;;;11.25;78.69
55604;BME280;41468;48.838;9.330;2023-02-17T09:45:26;99192.03;;;11.27;78.69
55604;BME280;41468;48.838;9.330;2023-02-17T09:48:05;99200.44;;;11.35;78.36
55604;BME280;41468;48.838;9.330;2023-02-17T09:50:47;99198.47;;;11.35;78.30
55604;BME280;41468;48.838;9.330;2023-02-17T09:53:23;99196.97;;;11.38;79.03
55604;BME280;41468;48.838;9.330;2023-02-17T09:55:56;99200.25;;;11.43;78.23
55604;BME280;41468;48.838;9.330;2023-02-17T09:58:37;99212.09;;;11.47;78.08
55604;BME280;41468;48.838;9.330;2023-02-17T10:01:09;99201.16;;;11.47;78.30
55604;BME280;41468;48.838;9.330;2023-02-17T10:03:42;99205.81;;;11.47;78.42
55604;BME280;41468;48.838;9.330;2023-02-17T10:06:19;99203.63;;;11.53;78.22
55604;BME280;41468;48.838;9.330;2023-02-17T10:08:58;99215.53;;;11.60;78.32
55604;BME280;41468;48.838;9.330;2023-02-17T10:11:43;99200.97;;;11.72;77.62
55604;BME280;41468;48.838;9.330;2023-02-17T10:14:21;99204.59;;;11.76;77.35
55604;BME280;41468;48.838;9.330;2023-02-17T10:17:04;99206.59;;;11.79;77.85
55604;BME280;41468;48.838;9.330;2023-02-17T10:19:38;99205.09;;;11.82;77.62
55604;BME280;41468;48.838;9.330;2023-02-17T10:22:17;99196.41;;;11.92;77.03
55604;BME280;41468;48.838;9.330;2023-02-17T10:24:44;99191.63;;;12.05;76.66
55604;BME280;41468;48.838;9.330;2023-02-17T10:30:03;99183.16;;;12.29;76.31
55604;BME280;41468;48.838;9.330;2023-02-17T10:32:45;99180.31;;;12.42;75.51
55604;BME280;41468;48.838;9.330;2023-02-17T10:35:22;99176.41;;;12.43;75.40
55604;BME280;41468;48.838;9.330;2023-02-17T10:40:37;99172.75;;;12.54;75.85
55604;BME280;41468;48.838;9.330;2023-02-17T10:43:05;99171.47;;;12.87;74.61
55604;BME280;41468;48.838;9.330;2023-02-17T10:45:43;99164.00;;;13.07;73.41
55604;BME280;41468;48.838;9.330;2023-02-17T10:48:17;99171.63;;;13.17;73.26
55604;BME280;41468;48.838;9.330;2023-02-17T10:50:50;99170.63;;;13.25;73.37
55604;BME280;41468;48.838;9.330;2023-02-17T10:53:24;99172.06;;;13.39;72.20
55604;BME280;41468;48.838;9.330;2023-02-17T10:56:02;99168.31;;;13.51;71.73
55604;BME280;41468;48.838;9.330;2023-02-17T11:01:02;99161.00;;;13.58;71.82
55604;BME280;41468;48.838;9.330;2023-02-17T11:03:32;99163.31;;;13.56;71.36
55604;BME280;41468;48.838;9.330;2023-02-17T11:06:04;99159.13;;;13.39;71.70
55604;BME280;41468;48.838;9.330;2023-02-17T11:08:51;99151.56;;;13.33;72.28
55604;BME280;41468;48.838;9.330;2023-02-17T11:11:24;99146.78;;;13.30;72.17
55604;BME280;41468;48.838;9.330;2023-02-17T11:16:37;99148.19;;;13.43;72.20
55604;BME280;41468;48.838;9.330;2023-02-17T11:19:06;99131.69;;;13.39;72.00
55604;BME280;41468;48.838;9.330;2023-02-17T11:21:43;99131.66;;;13.36;72.08
55604;BME280;41468;48.838;9.330;2023-02-17T11:24:10;99136.81;;;13.41;72.64
55604;BME280;41468;48.838;9.330;2023-02-17T11:26:36;99128.81;;;13.32;72.79
55604;BME280;41468;48.838;9.330;2023-02-17T11:29:15;99129.19;;;13.31;72.97
55604;BME280;41468;48.838;9.330;2023-02-17T11:31:55;99131.78;;;13.23;73.21
55604;BME280;41468;48.838;9.330;2023-02-17T11:34:26;99125.38;;;13.16;73.85
55604;BME280;41468;48.838;9.330;2023-02-17T11:39:42;99123.41;;;13.16;75.71
55604;BME280;41468;48.838;9.330;2023-02-17T11:44:55;99125.25;;;13.09;77.87
55604;BME280;41468;48.838;9.330;2023-02-17T11:47:47;99133.28;;;12.98;78.18
55604;BME280;41468;48.838;9.330;2023-02-17T11:50:34;99113.66;;;12.96;77.63
55604;BME280;41468;48.838;9.330;2023-02-17T11:53:16;99134.38;;;12.93;78.22
55604;BME280;41468;48.838;9.330;2023-02-17T11:58:44;99140.22;;;12.92;78.79
55604;BME280;41468;48.838;9.330;2023-02-17T12:01:28;99132.84;;;12.96;78.14
55604;BME280;41468;48.838;9.330;2023-02-17T12:09:40;99142.53;;;12.90;79.23
55604;BME280;41468;48.838;9.330;2023-02-17T12:15:38;99135.47;;;12.89;81.42
55604;BME280;41468;48.838;9.330;2023-02-17T12:26:42;99138.63;;;12.91;80.65
55604;BME280;41468;48.838;9.330;2023-02-17T12:35:02;99134.09;;;12.98;79.83
55604;BME280;41468;48.838;9.330;2023-02-17T12:37:47;99140.34;;;12.99;79.44
55604;BME280;41468;48.838;9.330;2023-02-17T12:45:41;99124.78;;;13.03;79.05
55604;BME280;41468;48.838;9.330;2023-02-17T12:48:16;99126.06;;;13.09;78.21
55604;BME280;41468;48.838;9.330;2023-02-17T12:51:02;99122.13;;;13.10;78.17
55604;BME280;41468;48.838;9.330;2023-02-17T12:53:41;99116.22;;;13.08;78.46
55604;BME280;41468;48.838;9.330;2023-02-17T12:58:53;99119.16;;;13.19;77.68
55604;BME280;41468;48.838;9.330;2023-02-17T13:01:25;99113.31;;;13.66;75.86
55604;BME280;41468;48.838;9.330;2023-02-17T13:03:58;99111.13;;;13.76;74.78
55604;BME280;41468;48.838;9.330;2023-02-17T13:06:37;99099.88;;;14.14;72.69
55604;BME280;41468;48.838;9.330;2023-02-17T13:11:51;99111.91;;;13.76;74.45
55604;BME280;41468;48.838;9.330;2023-02-17T13:14:26;99109.97;;;13.54;75.23
55604;BME280;41468;48.838;9.330;2023-02-17T13:16:55;99116.56;;;13.49;75.67
55604;BME280;41468;48.838;9.330;2023-02-17T13:19:29;99111.00;;;13.45;76.42
55604;BME280;41468;48.838;9.330;2023-02-17T13:21:57;99112.06;;;13.37;76.67
55604;BME280;41468;48.838;9.330;2023-02-17T13:24:38;99115.59;;;13.38;76.83
55604;BME280;41468;48.838;9.330;2023-02-17T13:33:02;99103.91;;;13.41;76.92
55604;BME280;41468;48.838;9.330;2023-02-17T13:35:32;99099.63;;;13.43;77.40
55604;BME280;41468;48.838;9.330;2023-02-17T13:37:59;99104.00;;;13.48;76.61
55604;BME280;41468;48.838;9.330;2023-02-17T13:42:56;99104.09;;;13.52;76.46
55604;BME280;41468;48.838;9.330;2023-02-17T13:45:27;99094.16;;;13.43;76.82
55604;BME280;41468;48.838;9.330;2023-02-17T13:47:56;99098.13;;;13.46;76.61
55604;BME280;41468;48.838;9.330;2023-02-17T13:52:56;99099.25;;;13.45;76.54
55604;BME280;41468;48.838;9.330;2023-02-17T13:55:23;99094.16;;;13.43;76.75
55604;BME280;41468;48.838;9.330;2023-02-17T13:57:54;99087.06;;;13.42;76.65
55604;BME280;41468;48.838;9.330;2023-02-17T14:00:29;99087.53;;;13.48;76.88
55604;BME280;41468;48.838;9.330;2023-02-17T14:08:06;99074.22;;;13.46;77.11
55604;BME280;41468;48.838;9.330;2023-02-17T14:10:33;99079.31;;;13.48;77.45
55604;BME280;41468;48.838;9.330;2023-02-17T14:13:01;99073.50;;;13.53;76.74
55604;BME280;41468;48.838;9.330;2023-02-17T14:15:28;99073.19;;;13.58;76.77
55604;BME280;41468;48.838;9.330;2023-02-17T14:17:55;99069.28;;;13.59;76.78
55604;BME280;41468;48.838;9.330;2023-02-17T14:20:33;99070.25;;;13.70;77.25
55604;BME280;41468;48.838;9.330;2023-02-17T14:23:12;99067.06;;;13.95;75.99
55604;BME280;41468;48.838;9.330;2023-02-17T14:25:42;99066.28;;;14.25;74.82
55604;BME280;41468;48.838;9.330;2023-02-17T14:28:21;99068.81;;;14.41;74.67
55604;BME280;41468;48.838;9.330;2023-02-17T14:30:49;99072.97;;;14.57;74.35
55604;BME280;41468;48.838;9.330;2023-02-17T14:35:55;99075.59;;;14.84;72.81
55604;BME280;41468;48.838;9.330;2023-02-17T14:38:30;99063.81;;;14.84;72.52
55604;BME280;41468;48.838;9.330;2023-02-17T14:41:03;99064.13;;;14.75;72.38
55604;BME280;41468;48.838;9.330;2023-02-17T14:43:30;99061.31;;;14.71;72.67
55604;BME280;41468;48.838;9.330;2023-02-17T14:45:57;99065.94;;;14.60;72.88
55604;BME280;41468;48.838;9.330;2023-02-17T14:48:24;99067.66;;;14.42;73.54
55604;BME280;41468;48.838;9.330;2023-02-17T14:50:55;99071.88;;;14.32;74.28
55604;BME280;41468;48.838;9.330;2023-02-17T14:58:52;99075.16;;;14.14;75.36